Sadorus, Illinois
Current Conditions -  °F | °C
As of 2:53 PM on Monday 22 Dec 2014 (Local Time) from KCMI Reporting Station
Light Rain Light Rain  
Wind Chill: 36°   Ceiling: 500
Heat Index: 43°   Visibility: 2mi
Dew Point: 42°   Wind: 14mph
Humidity: 97%   Direction: 130°SE
Pressure: 29.66"   Gusts: NA
Location:  39.97°N, 88.35°W
Report Text: KCMI 222053Z AUTO 13012KT 2SM -RA BR OVC005 06/06 A2966 RMK AO2 SFC VIS 2 1/2 CIG 004V010 SLP047 P0005 60011 T00610056 56031
Loading
Personal Weather Stations






























Interactive Weather Map New forecast layout! Learn more

10-Day Weather Forecast

Advertisements
Track Severe Weather on mobile